Ariton, Alabama
Current Conditions -  °F | °C
As of 1:53 AM on Sunday 26 Oct 2014 (Local Time) from KLOR Reporting Station
Haze Haze  
Wind Chill: 11°   Ceiling: Unl
Heat Index: 11°   Visibility: 6mi
Dew Point:   Wind: 0mph
Humidity: 92%   Direction: NA
Pressure: 30.02"   Gusts: NA
Location:  31.6°N, 85.72°W
Report Text: KLOR 260653Z AUTO 00000KT 6SM BR CLR 11/09 A3002 RMK AO2 SLP163 T01060094 TSNO $
Loading
Personal Weather Stations






























Interactive Weather Map
Tropical Storm Tracking
New forecast layout! Learn more

10-Day Weather Forecast

Advertisements
Track Severe Weather on mobile